Terminal Aerodrome Forecast
Issued by NWS

Home | Current Version | Previous Version | Text Only | Print | Product List | Glossary On
Versions: 1 2 3 4 5 6 7 8 9 10 11 12 13 14
000
FTUS42 KFFC 202300
TAFFTY
TAF
KFTY 202322Z 2100/2124 24003KT P6SM FEW050
     FM210200 27002KT P6SM FEW060 SCT100
     FM211000 30005KT P6SM FEW150
     FM211600 32010G16KT P6SM FEW250
     FM212300 33006KT P6SM SKC=

USA.gov is the U.S. government's official web portal to all federal, state and local government web resources and services.